EKVG Airport Information

Runway Information
Runway 13 Length 5902 ft width 98 ft
Elevation 268 ft Threshold 0 ft Heading 118
Runway 31 Length 5902 ft Width 98 ft
Elevation 252 ft Threshold 0 ft Heading 298
Airport Frequencies
Type AFIS Name AFIS Frequency 124.85 MHZ
Airport Navaids
Type NDB Name Myggenes Frequency 337 KHZ
Type NDB Name Nolso Frequency 404 KHZ
Type NDB Name Vagar Frequency 348 KHZ
Airport Weather Information & NOTAM
ADDS - METARS form results

(2228 UTC 15 April 2021)
Data provider http://aviationweather.gov/metar/data/
 
METAR text: EKVG 152220Z AUTO 14016KT 9999 NCD 07/05 Q1024
Conditions at: EKVG (SORVAAG/VAGAR , DK) observed 2220 UTC 15 April 2021
Temperature: 7.0°C (45°F)
Dewpoint: 5.0°C (41°F) [RH = 87%]
Pressure (altimeter): 30.24 inches Hg (1024.0 mb)
Winds: from the SE (140 degrees) at 18 MPH (16 knots; 8.2 m/s)
Visibility: 6 or more miles (10+ km)
Ceiling: at least 12,000 feet AGL
Clouds: sky clear below 12,000 feet AGL
Weather: no significant weather observed at this time

METAR text: EKVG 152150Z AUTO 15016KT 9999 NCD 07/06 Q1024
Conditions at: EKVG (SORVAAG/VAGAR , DK) observed 2150 UTC 15 April 2021
Temperature: 7.0°C (45°F)
Dewpoint: 6.0°C (43°F) [RH = 93%]
Pressure (altimeter): 30.24 inches Hg (1024.0 mb)
Winds: from the SSE (150 degrees) at 18 MPH (16 knots; 8.2 m/s)
Visibility: 6 or more miles (10+ km)
Ceiling: at least 12,000 feet AGL
Clouds: sky clear below 12,000 feet AGL
Weather: no significant weather observed at this time

Forecast for: EKVG (SORVAAG/VAGAR , DK)
Text: TAF EKVG 151418Z 1515/1521 17018KT 9999 BKN012
Forecast period: 1500 to 2100 UTC 15 April 2021
Forecast type: FROM: standard forecast or significant change
Winds: from the S (170 degrees) at 21 MPH (18 knots; 9.3 m/s)
Visibility: 6 or more miles (10+ km)
Ceiling: 1200 feet AGL
Clouds: broken clouds at 1200 feet AGL
Weather: no significant weather forecast for this period